createdAt,value
2019-01-17T00:02:49.866Z,86.38
2019-01-17T00:05:37.564Z,86.74
2019-01-17T00:08:33.669Z,87.09
2019-01-17T00:11:11.674Z,87.76
2019-01-17T00:14:00.467Z,89.14
2019-01-17T00:16:55.368Z,89.96
2019-01-17T00:19:47.147Z,90.54
2019-01-17T00:22:37.913Z,91.05
2019-01-17T00:25:26.230Z,91.73
2019-01-17T00:28:13.413Z,92.32
2019-01-17T00:31:01.423Z,92.56
2019-01-17T00:33:40.004Z,92.84
2019-01-17T00:36:44.101Z,93.13
2019-01-17T00:39:45.322Z,93.22
2019-01-17T00:42:24.936Z,92.99
2019-01-17T00:45:28.821Z,92.93
2019-01-17T00:48:20.616Z,92.95
2019-01-17T00:51:08.519Z,93.00
2019-01-17T00:57:18.133Z,92.81
2019-01-17T01:00:35.543Z,93.19
2019-01-17T01:03:23.150Z,93.50
2019-01-17T01:06:18.219Z,93.84
2019-01-17T01:09:25.281Z,93.98
2019-01-17T01:12:23.061Z,94.00
2019-01-17T01:15:15.339Z,94.12
2019-01-17T01:17:46.751Z,94.28
2019-01-17T01:20:42.026Z,94.25
2019-01-17T01:23:36.696Z,94.57
2019-01-17T01:26:24.085Z,94.82
2019-01-17T01:29:14.032Z,95.23
2019-01-17T01:31:53.541Z,95.43
2019-01-17T01:34:41.447Z,95.65
2019-01-17T01:37:33.555Z,95.89
2019-01-17T01:40:35.903Z,96.11
2019-01-17T01:43:26.988Z,96.31
2019-01-17T01:46:13.666Z,96.59
2019-01-17T01:49:08.950Z,96.74
2019-01-17T01:51:49.267Z,96.83
2019-01-17T01:54:22.155Z,97.04
2019-01-17T01:56:50.251Z,97.16
2019-01-17T01:59:19.739Z,97.18
2019-01-17T02:01:48.961Z,97.14
2019-01-17T02:04:18.278Z,97.22
2019-01-17T02:06:47.427Z,97.19
2019-01-17T02:09:17.855Z,97.07
2019-01-17T02:11:46.783Z,97.04
2019-01-17T02:14:17.600Z,97.00
2019-01-17T02:16:46.433Z,97.09
2019-01-17T02:19:15.670Z,97.12
2019-01-17T02:21:44.665Z,96.94
2019-01-17T02:24:13.557Z,96.95
2019-01-17T02:26:42.845Z,96.90
2019-01-17T02:29:12.156Z,96.82
2019-01-17T02:31:41.335Z,96.91
2019-01-17T02:34:11.773Z,96.83
2019-01-17T02:36:41.066Z,96.79
2019-01-17T02:39:09.881Z,96.76
2019-01-17T02:41:39.349Z,96.79
2019-01-17T02:44:08.535Z,96.82
2019-01-17T02:46:37.429Z,96.69
2019-01-17T02:49:06.103Z,96.49
2019-01-17T02:51:35.010Z,96.42
2019-01-17T02:54:04.564Z,96.41
2019-01-17T02:56:34.295Z,96.31
2019-01-17T02:59:03.337Z,96.21
2019-01-17T03:01:32.304Z,96.07
2019-01-17T03:04:01.214Z,96.10
2019-01-17T03:06:31.435Z,95.90
2019-01-17T03:09:00.252Z,95.90
2019-01-17T03:11:29.094Z,95.84
2019-01-17T03:13:57.889Z,95.63
2019-01-17T03:16:26.606Z,95.49
2019-01-17T03:18:56.145Z,95.37
2019-01-17T03:21:24.872Z,95.21
2019-01-17T03:23:54.062Z,95.27
2019-01-17T03:26:22.903Z,95.21
2019-01-17T03:28:52.020Z,95.34
2019-01-17T03:31:20.816Z,94.97
2019-01-17T03:33:49.872Z,94.92
2019-01-17T03:36:18.778Z,94.90
2019-01-17T03:38:48.207Z,94.69
2019-01-17T03:41:17.351Z,94.59
2019-01-17T03:43:46.700Z,94.63
2019-01-17T03:46:16.126Z,94.50
2019-01-17T03:48:45.672Z,94.35
2019-01-17T03:51:14.350Z,94.10
2019-01-17T03:53:43.160Z,93.88
2019-01-17T03:56:12.412Z,93.65
2019-01-17T03:58:42.527Z,93.73
2019-01-17T04:01:11.281Z,93.89
2019-01-17T04:03:40.615Z,93.85
2019-01-17T04:06:11.220Z,93.93
2019-01-17T04:08:40.476Z,93.85
2019-01-17T04:11:09.237Z,94.01
2019-01-17T04:13:38.966Z,94.22
2019-01-17T04:16:07.810Z,94.43
2019-01-17T04:18:37.230Z,94.68
2019-01-17T04:21:06.133Z,94.89
2019-01-17T04:23:35.420Z,94.83
2019-01-17T04:26:05.250Z,94.63
2019-01-17T04:28:34.239Z,94.69
2019-01-17T04:31:03.336Z,94.72
2019-01-17T04:33:32.273Z,94.60
2019-01-17T04:36:01.206Z,94.39
2019-01-17T04:38:32.453Z,94.41
2019-01-17T04:41:02.181Z,94.40
2019-01-17T04:43:31.012Z,94.32
2019-01-17T04:45:59.766Z,94.33
2019-01-17T04:48:32.150Z,94.24
2019-01-17T04:52:00.521Z,94.29
2019-01-17T04:54:48.961Z,94.26
2019-01-17T04:57:36.777Z,94.18
2019-01-17T05:00:24.004Z,93.91
2019-01-17T05:02:52.986Z,94.00
2019-01-17T05:05:22.251Z,93.94
2019-01-17T05:07:51.869Z,94.09
2019-01-17T05:10:21.115Z,94.17
2019-01-17T05:12:50.178Z,93.89
2019-01-17T05:15:19.107Z,93.84
2019-01-17T05:17:48.944Z,93.68
2019-01-17T05:20:18.180Z,93.77
2019-01-17T05:22:47.693Z,93.93
2019-01-17T05:25:16.940Z,94.01
2019-01-17T05:27:45.958Z,94.12
2019-01-17T05:30:16.777Z,94.12
2019-01-17T05:32:46.348Z,94.23
2019-01-17T05:35:15.305Z,94.32
2019-01-17T05:37:45.237Z,94.28
2019-01-17T05:40:16.513Z,94.27
2019-01-17T05:42:45.915Z,94.13
2019-01-17T05:45:15.290Z,94.20
2019-01-17T05:47:44.560Z,94.12
2019-01-17T05:50:15.175Z,94.16
2019-01-17T05:52:44.661Z,93.99
2019-01-17T05:55:19.641Z,94.07
2019-01-17T05:57:45.633Z,93.91
2019-01-17T06:00:17.381Z,93.80
2019-01-17T06:02:46.346Z,93.89
2019-01-17T06:05:16.156Z,93.79
2019-01-17T06:07:45.487Z,93.67
2019-01-17T06:10:16.300Z,93.62
2019-01-17T06:12:45.637Z,93.54
2019-01-17T06:15:19.114Z,93.39
2019-01-17T06:17:48.118Z,93.34
2019-01-17T06:20:17.179Z,93.22
2019-01-17T06:22:45.971Z,93.47
2019-01-17T06:25:16.203Z,93.31
2019-01-17T06:27:46.737Z,93.47
2019-01-17T06:30:17.367Z,93.65
2019-01-17T06:32:46.182Z,93.68
2019-01-17T06:35:15.501Z,93.86
2019-01-17T06:37:44.582Z,93.96
2019-01-17T06:40:32.789Z,94.02
2019-01-17T06:43:01.578Z,94.08
2019-01-17T06:45:30.472Z,94.19
2019-01-17T06:47:59.532Z,94.40
2019-01-17T06:50:30.216Z,94.50
2019-01-17T06:52:59.242Z,94.54
2019-01-17T06:55:34.257Z,94.47
2019-01-17T06:57:59.011Z,94.55
2019-01-17T07:00:27.876Z,94.63
2019-01-17T07:02:57.477Z,94.86
2019-01-17T07:05:28.962Z,94.90
2019-01-17T07:07:58.278Z,94.88
2019-01-17T07:10:27.514Z,94.98
2019-01-17T07:12:56.176Z,95.06
2019-01-17T07:15:26.274Z,95.15
2019-01-17T07:17:55.273Z,95.21
2019-01-17T07:20:24.966Z,95.21
2019-01-17T07:22:53.823Z,95.30
2019-01-17T07:25:22.662Z,95.35
2019-01-17T07:27:51.582Z,95.47
2019-01-17T07:30:24.143Z,95.16
2019-01-17T07:32:54.066Z,95.29
2019-01-17T07:35:24.190Z,95.23
2019-01-17T07:37:53.869Z,95.28
2019-01-17T07:40:23.896Z,95.03
2019-01-17T07:42:53.097Z,95.20
2019-01-17T07:45:25.816Z,95.13
2019-01-17T07:47:54.976Z,95.00
2019-01-17T07:50:25.674Z,94.93
2019-01-17T07:52:54.889Z,94.86
2019-01-17T07:55:24.326Z,94.78
2019-01-17T07:57:53.398Z,95.16
2019-01-17T08:00:23.405Z,95.41
2019-01-17T08:02:52.171Z,95.49
2019-01-17T08:05:22.322Z,95.37
2019-01-17T08:07:56.077Z,95.30
2019-01-17T08:10:25.334Z,95.28
2019-01-17T08:12:55.170Z,94.89
2019-01-17T08:15:24.067Z,94.27
2019-01-17T08:17:53.206Z,93.67
2019-01-17T08:20:23.619Z,93.82
2019-01-17T08:22:52.603Z,94.05
2019-01-17T08:25:21.590Z,94.26
2019-01-17T08:27:50.518Z,93.92
2019-01-17T08:30:22.833Z,93.43
2019-01-17T08:36:48.978Z,88.95
2019-01-17T08:39:35.768Z,89.34
2019-01-17T08:42:23.146Z,89.37
2019-01-17T08:45:11.379Z,91.52
2019-01-17T08:47:58.226Z,92.00
2019-01-17T08:50:46.811Z,91.05
2019-01-17T08:53:36.934Z,87.08
2019-01-17T08:56:23.655Z,85.50
2019-01-17T08:59:10.705Z,85.33
2019-01-17T09:01:39.585Z,85.47
2019-01-17T09:04:08.167Z,86.70
2019-01-17T09:06:37.556Z,88.57
2019-01-17T09:09:09.176Z,89.62
2019-01-17T09:11:38.229Z,89.85
2019-01-17T09:14:07.790Z,89.59
2019-01-17T09:16:36.650Z,89.06
2019-01-17T09:19:07.403Z,88.20
2019-01-17T09:21:36.049Z,88.74
2019-01-17T09:24:04.872Z,88.68
2019-01-17T09:26:36.554Z,88.76
2019-01-17T09:29:05.381Z,88.95
2019-01-17T09:31:35.810Z,88.78
2019-01-17T09:34:04.362Z,88.65
2019-01-17T09:36:33.330Z,88.62
2019-01-17T09:39:07.452Z,88.67
2019-01-17T09:41:37.261Z,89.12
2019-01-17T09:44:06.274Z,88.87
2019-01-17T09:46:35.101Z,88.38
2019-01-17T09:49:03.766Z,88.57
2019-01-17T09:51:32.929Z,88.90
2019-01-17T09:54:01.785Z,89.02
2019-01-17T09:56:31.194Z,88.69
2019-01-17T09:59:00.113Z,88.73
2019-01-17T10:01:29.134Z,88.53
2019-01-17T10:03:57.742Z,88.36
2019-01-17T10:06:26.753Z,88.15
2019-01-17T10:08:55.657Z,87.60
2019-01-17T10:11:24.893Z,87.00
2019-01-17T10:13:53.706Z,86.85
2019-01-17T10:16:59.889Z,86.15
2019-01-17T10:19:55.505Z,84.54
2019-01-17T10:23:25.252Z,84.08
2019-01-17T10:26:13.928Z,84.42
2019-01-17T10:29:00.101Z,82.41
2019-01-17T10:32:06.841Z,83.55
2019-01-17T10:35:07.340Z,83.92
2019-01-17T10:38:23.621Z,84.11
2019-01-17T10:41:29.676Z,82.81
2019-01-17T10:44:23.706Z,81.63
2019-01-17T10:47:45.315Z,80.71
2019-01-17T10:51:03.249Z,79.89
2019-01-17T10:54:08.567Z,78.17
2019-01-17T10:56:43.952Z,80.66
2019-01-17T10:59:36.766Z,81.25
2019-01-17T11:02:57.189Z,81.90
2019-01-17T11:06:13.317Z,82.64
2019-01-17T11:09:16.075Z,82.22
2019-01-17T11:12:10.810Z,82.79
2019-01-17T11:15:19.947Z,82.19
2019-01-17T11:18:26.145Z,81.79
2019-01-17T11:21:40.825Z,82.21
2019-01-17T11:25:09.302Z,82.51
2019-01-17T11:28:39.205Z,82.96
2019-01-17T11:32:02.908Z,82.39
2019-01-17T11:35:11.798Z,82.36
2019-01-17T11:38:39.868Z,82.97
2019-01-17T11:41:32.670Z,85.04
2019-01-17T11:44:35.962Z,90.31
2019-01-17T11:47:45.531Z,93.10
2019-01-17T11:50:26.242Z,94.34
2019-01-17T11:53:22.494Z,95.28
2019-01-17T11:56:41.498Z,95.14
2019-01-17T11:59:29.092Z,95.77
2019-01-17T12:02:28.335Z,96.41
2019-01-17T12:04:55.477Z,96.47
2019-01-17T12:07:24.193Z,96.88
2019-01-17T12:09:52.911Z,97.04
2019-01-17T12:12:25.501Z,97.27
2019-01-17T12:14:57.679Z,97.38
2019-01-17T12:17:26.266Z,97.60
2019-01-17T12:19:55.462Z,97.77
2019-01-17T12:22:24.851Z,97.77
2019-01-17T12:24:54.024Z,97.77
2019-01-17T12:27:23.330Z,97.70
2019-01-17T12:29:52.087Z,97.42
2019-01-17T12:32:22.641Z,97.42
2019-01-17T12:34:53.747Z,97.40
2019-01-17T12:37:23.248Z,97.49
2019-01-17T12:39:52.360Z,97.63
2019-01-17T12:42:21.021Z,97.63
2019-01-17T12:44:49.216Z,97.69
2019-01-17T12:47:18.700Z,97.86
2019-01-17T12:49:47.777Z,97.86
2019-01-17T12:52:16.652Z,97.97
2019-01-17T12:54:46.091Z,98.08
2019-01-17T12:57:14.603Z,98.49
2019-01-17T12:59:43.102Z,98.51
2019-01-17T13:02:12.048Z,98.59
2019-01-17T13:04:40.942Z,98.44
2019-01-17T13:07:10.734Z,98.56
2019-01-17T13:09:39.484Z,98.35
2019-01-17T13:12:08.092Z,98.29
2019-01-17T13:14:38.118Z,98.39
2019-01-17T13:17:06.823Z,98.50
2019-01-17T13:19:35.688Z,98.33
2019-01-17T13:22:04.555Z,98.28
2019-01-17T13:24:33.402Z,98.37
2019-01-17T13:27:02.399Z,98.26
2019-01-17T13:29:32.013Z,98.11
2019-01-17T13:32:00.457Z,98.22
2019-01-17T13:34:29.461Z,98.23
2019-01-17T13:36:58.339Z,98.19
2019-01-17T13:39:27.526Z,98.33
2019-01-17T13:41:56.620Z,98.48
2019-01-17T13:44:25.792Z,98.46
2019-01-17T13:46:55.461Z,98.52
2019-01-17T13:49:23.880Z,98.67
2019-01-17T13:51:52.938Z,98.77
2019-01-17T13:54:21.815Z,98.87
2019-01-17T13:56:50.585Z,98.89
2019-01-17T13:59:19.228Z,98.89
2019-01-17T14:01:48.513Z,98.86
2019-01-17T14:04:17.190Z,98.84
2019-01-17T14:06:45.695Z,98.84
2019-01-17T14:09:14.316Z,98.26
2019-01-17T14:11:43.423Z,98.52
2019-01-17T14:14:13.278Z,98.52
2019-01-17T14:16:42.580Z,98.51
2019-01-17T14:19:11.327Z,98.50
2019-01-17T14:21:40.065Z,98.47
2019-01-17T14:24:09.433Z,98.37
2019-01-17T14:26:37.939Z,98.29
2019-01-17T14:29:06.744Z,98.32
2019-01-17T14:31:35.261Z,98.10
2019-01-17T14:34:03.654Z,98.30
2019-01-17T14:36:33.002Z,98.30
2019-01-17T14:39:04.172Z,98.22
2019-01-17T14:41:39.185Z,98.39
2019-01-17T14:44:11.714Z,98.24
2019-01-17T14:46:41.789Z,98.25
2019-01-17T14:49:10.948Z,98.01
2019-01-17T14:51:39.957Z,98.01
2019-01-17T14:54:09.422Z,98.02
2019-01-17T14:56:38.160Z,97.81
2019-01-17T14:59:07.607Z,97.28
2019-01-17T15:01:43.283Z,96.64
2019-01-17T15:04:11.925Z,96.32
2019-01-17T15:06:40.631Z,96.12
2019-01-17T15:09:10.523Z,96.29
2019-01-17T15:11:39.414Z,95.87
2019-01-17T15:14:07.919Z,96.21
2019-01-17T15:16:37.816Z,96.34
2019-01-17T15:19:06.928Z,96.39
2019-01-17T15:21:36.137Z,96.33
2019-01-17T15:24:05.604Z,96.54
2019-01-17T15:26:34.384Z,96.58
2019-01-17T15:29:03.506Z,96.29
2019-01-17T15:31:32.950Z,96.29
2019-01-17T15:34:02.136Z,96.07
2019-01-17T15:36:30.661Z,95.71
2019-01-17T15:38:59.454Z,95.72
2019-01-17T15:41:28.581Z,95.91
2019-01-17T15:43:57.752Z,96.01
2019-01-17T15:46:26.409Z,95.94
2019-01-17T15:49:01.786Z,96.05
2019-01-17T15:51:35.310Z,96.18
2019-01-17T15:54:04.647Z,96.18
2019-01-17T15:56:33.208Z,96.12
2019-01-17T15:59:01.813Z,96.35
2019-01-17T16:01:30.334Z,96.39
2019-01-17T16:03:59.241Z,96.21
2019-01-17T16:06:28.471Z,96.12
2019-01-17T16:08:57.391Z,96.30
2019-01-17T16:11:26.094Z,96.34
2019-01-17T16:13:54.779Z,96.34
2019-01-17T16:16:23.976Z,96.88
2019-01-17T16:18:52.647Z,97.12
2019-01-17T16:21:28.012Z,97.27
2019-01-17T16:23:56.644Z,97.52
2019-01-17T16:26:25.650Z,97.54
2019-01-17T16:28:54.422Z,97.67
2019-01-17T16:31:23.375Z,97.89
2019-01-17T16:33:52.277Z,97.98
2019-01-17T16:36:22.117Z,98.11
2019-01-17T16:38:51.357Z,98.10
2019-01-17T16:41:20.678Z,97.87
2019-01-17T16:43:49.486Z,97.87
2019-01-17T16:46:19.201Z,98.01
2019-01-17T16:48:49.277Z,97.94
2019-01-17T16:51:17.857Z,97.75
2019-01-17T16:53:46.446Z,98.12
2019-01-17T16:56:15.698Z,98.08
2019-01-17T16:58:44.774Z,98.05
2019-01-17T17:01:13.512Z,98.03
2019-01-17T17:03:43.015Z,98.19
2019-01-17T17:06:11.752Z,98.11
2019-01-17T17:08:41.814Z,97.69
2019-01-17T17:11:12.776Z,97.59
2019-01-17T17:13:41.897Z,97.66
2019-01-17T17:16:10.795Z,97.38
2019-01-17T17:18:39.088Z,97.65
2019-01-17T17:21:08.680Z,97.65
2019-01-17T17:23:37.643Z,97.51
2019-01-17T17:26:06.520Z,98.03
2019-01-17T17:28:48.539Z,97.84
2019-01-17T17:31:34.229Z,97.84
2019-01-17T17:34:07.374Z,98.24
2019-01-17T17:36:36.016Z,98.24
2019-01-17T17:39:07.537Z,98.28
2019-01-17T17:41:36.135Z,98.35
2019-01-17T17:44:07.080Z,98.44
2019-01-17T17:46:35.933Z,98.56
2019-01-17T17:49:05.478Z,98.57
2019-01-17T17:51:34.310Z,98.52
2019-01-17T17:54:03.043Z,98.48
2019-01-17T17:56:31.614Z,98.37
2019-01-17T17:59:00.911Z,98.19
2019-01-17T18:01:35.968Z,98.06
2019-01-17T18:04:04.780Z,98.06
2019-01-17T18:06:34.152Z,97.92
2019-01-17T18:09:04.459Z,97.71
2019-01-17T18:11:33.560Z,97.64
2019-01-17T18:14:02.252Z,97.62
2019-01-17T18:16:33.446Z,97.56
2019-01-17T18:19:02.265Z,97.59
2019-01-17T18:21:30.728Z,97.61
2019-01-17T18:23:59.844Z,97.55
2019-01-17T18:26:28.991Z,97.48
2019-01-17T18:28:58.026Z,97.46
2019-01-17T18:31:26.602Z,97.35
2019-01-17T18:33:55.872Z,97.20
2019-01-17T18:36:24.344Z,97.27
2019-01-17T18:38:54.986Z,97.28
2019-01-17T18:41:25.202Z,97.27
2019-01-17T18:43:54.374Z,97.24
2019-01-17T18:46:23.199Z,97.10
2019-01-17T18:48:51.799Z,97.10
2019-01-17T18:51:20.510Z,96.67
2019-01-17T18:53:49.154Z,96.63
2019-01-17T18:56:18.288Z,96.08
2019-01-17T18:58:47.703Z,96.14
2019-01-17T19:01:16.734Z,96.12
2019-01-17T19:03:46.583Z,96.09
2019-01-17T19:06:15.083Z,96.06
2019-01-17T19:08:44.414Z,96.11
2019-01-17T19:11:13.113Z,96.27
2019-01-17T19:13:41.618Z,96.35
2019-01-17T19:16:10.371Z,96.29
2019-01-17T19:18:41.827Z,96.35
2019-01-17T19:21:10.339Z,96.52
2019-01-17T19:23:38.751Z,96.40
2019-01-17T19:26:09.107Z,96.59
2019-01-17T19:28:38.254Z,96.64
2019-01-17T19:31:07.363Z,96.68
2019-01-17T19:33:36.869Z,96.74
2019-01-17T19:36:05.665Z,96.86
2019-01-17T19:38:35.028Z,96.97
2019-01-17T19:41:03.818Z,97.02
2019-01-17T19:43:36.744Z,97.01
2019-01-17T19:46:08.861Z,96.97
2019-01-17T19:48:39.595Z,96.93
2019-01-17T19:51:08.656Z,96.97
2019-01-17T19:53:37.142Z,96.91
2019-01-17T19:56:06.355Z,96.92
2019-01-17T19:58:35.031Z,96.97
2019-01-17T20:01:04.664Z,96.92
2019-01-17T20:03:35.767Z,96.82
2019-01-17T20:06:05.319Z,96.85
2019-01-17T20:08:34.245Z,96.60
2019-01-17T20:11:02.840Z,96.54
2019-01-17T20:13:31.441Z,96.50
2019-01-17T20:16:01.375Z,96.52
2019-01-17T20:18:30.109Z,96.69
2019-01-17T20:20:58.519Z,96.77
2019-01-17T20:23:27.679Z,97.03
2019-01-17T20:25:57.590Z,96.90
2019-01-17T20:28:26.277Z,97.14
2019-01-17T20:30:55.054Z,97.14
2019-01-17T20:33:23.683Z,97.23
2019-01-17T20:35:52.530Z,97.15
2019-01-17T20:38:20.825Z,97.26
2019-01-17T20:40:50.098Z,97.20
2019-01-17T20:43:21.535Z,97.12
2019-01-17T20:45:50.859Z,97.12
2019-01-17T20:48:20.420Z,97.09
2019-01-17T20:50:49.276Z,97.09
2019-01-17T20:53:19.393Z,97.02
2019-01-17T20:55:48.500Z,97.20
2019-01-17T20:58:18.126Z,97.06
2019-01-17T21:01:17.943Z,96.44
2019-01-17T21:03:46.944Z,96.87
2019-01-17T21:06:16.518Z,96.99
2019-01-17T21:08:45.768Z,97.07
2019-01-17T21:11:14.606Z,96.90
2019-01-17T21:13:43.255Z,96.65
2019-01-17T21:16:12.138Z,96.78
2019-01-17T21:18:40.933Z,96.80
2019-01-17T21:21:09.638Z,96.80
2019-01-17T21:23:41.427Z,96.75
2019-01-17T21:26:10.809Z,96.81
2019-01-17T21:28:42.227Z,96.81
2019-01-17T21:31:10.685Z,97.08
2019-01-17T21:33:39.363Z,97.17
2019-01-17T21:36:08.037Z,97.17
2019-01-17T21:38:36.502Z,97.17
2019-01-17T21:41:05.803Z,97.25
2019-01-17T21:43:35.164Z,97.19
2019-01-17T21:46:04.834Z,97.19
2019-01-17T21:48:33.699Z,97.78
2019-01-17T21:51:02.824Z,98.04
2019-01-17T21:53:31.887Z,98.04
2019-01-17T21:56:00.875Z,98.20
2019-01-17T21:58:30.572Z,98.70
2019-01-17T22:00:59.498Z,98.75
2019-01-17T22:03:28.812Z,98.75
2019-01-17T22:05:57.624Z,98.91
2019-01-17T22:08:26.716Z,98.91
2019-01-17T22:10:55.877Z,98.84
2019-01-17T22:13:24.876Z,98.97
2019-01-17T22:15:53.854Z,98.70
2019-01-17T22:18:22.712Z,98.78
2019-01-17T22:20:52.006Z,98.78
2019-01-17T22:23:20.603Z,98.62
2019-01-17T22:25:52.440Z,98.51
2019-01-17T22:28:21.516Z,98.60
2019-01-17T22:30:50.107Z,98.60
2019-01-17T22:33:19.056Z,98.38
2019-01-17T22:35:47.795Z,98.37
2019-01-17T22:38:16.537Z,98.32
2019-01-17T22:40:45.279Z,98.16
2019-01-17T22:43:13.780Z,98.11
2019-01-17T22:45:42.987Z,98.27
2019-01-17T22:48:12.157Z,97.94
2019-01-17T22:50:40.630Z,97.94
2019-01-17T22:53:09.219Z,97.81
2019-01-17T22:55:37.883Z,97.85
2019-01-17T22:58:06.678Z,97.87
2019-01-17T23:00:51.488Z,97.93
2019-01-17T23:03:28.648Z,97.78
2019-01-17T23:05:57.360Z,97.73
2019-01-17T23:08:26.453Z,97.84
2019-01-17T23:10:55.242Z,97.92
2019-01-17T23:13:24.847Z,97.92
2019-01-17T23:15:53.524Z,97.85
2019-01-17T23:18:21.801Z,97.90
2019-01-17T23:20:52.015Z,97.85
2019-01-17T23:23:21.227Z,97.84
2019-01-17T23:25:50.519Z,97.71
2019-01-17T23:28:19.070Z,97.87
2019-01-17T23:30:48.616Z,98.13
2019-01-17T23:33:17.986Z,98.13
2019-01-17T23:35:47.283Z,98.24
2019-01-17T23:38:16.197Z,98.01
2019-01-17T23:40:45.805Z,98.01
2019-01-17T23:43:15.211Z,97.87
2019-01-17T23:45:43.876Z,97.99
2019-01-17T23:48:13.185Z,97.99
2019-01-17T23:50:41.751Z,97.58
2019-01-17T23:53:10.543Z,97.58
2019-01-17T23:55:39.819Z,97.39
2019-01-17T23:58:08.314Z,97.40
